Other Aviation Products
Issued by NWS

Home | Current Version | Previous Version | Text Only | Print | Product List | Glossary On
Versions: 1
000
NOAK58 PAWU 220222
OAVAWU
NATIONAL WEATHER SERVICE ALASKA AVIATION WEATHER UNIT
ANCHORAGE ALASKA

TO:    FORENSIC SERVICES MANAGER (W/OS23)
       NATIONAL WEATHER SERVICE
       C/O TELECOMMUNICATIONS GATEWAY
       SILVER SPRING, MD 20910

INFO:  ATTENTION ALASKA REGION - REGIONAL AVIATION METEOROLOGIST - W/AR1X1

ALPHA     GENERAL AVIATION
  AIRCRAFT TYPE: CESSNA, C205
  REGISTRATION NUMBER: N8347Z
  PILOT NAME: UNKNOWN

BRAVO     LOCATION: 10.5NM SW RUSSIAN MISSION, ALASKA

CHARLIE   AIRCRAFT CRASHED UNDER UNKNOWN CIRCUMSTANCES.
  NUMBER OF SOULS ONBOARD: ONE (1)
  FATALITIES: ONE (1)

DELTA     SURFACE OBSERVATIONS/METARS: 10/17/17 1000AM LOCAL THROUGH 10/17/17 500PM LOCAL

  RUSSIAN MISSION/PARS
  PARS 180056Z AUTO 32008KT 10SM CLR 03/M02 A2948 RMK AO2 SLP988 T00281022 $
  PARS 172356Z AUTO 33005KT 10SM FEW023 SCT027 02/M03 A2949 RMK AO2 SLP990 T00221028 10044
          21006 58002 FZRANO $
          PARS 172345Z AUTO 32004KT 10SM FEW022 BKN027 BKN045 02/M02 A2949 RMK AO2 FZRANO $
          PARS 172256Z AUTO 02003KT 10SM SCT028 OVC033 02/00 A2949 RMK AO2 SLP992 T00170000 FZRANO $
  PARS 172156Z AUTO 02005KT 10SM BKN021 OVC028 03/01 A2950 RMK AO2 SLP993 T00280011 $
          PARS 172123Z AUTO 00000KT 10SM SCT015 03/02 A2950 RMK AO2 $
          PARS 172056Z AUTO 02004KT 10SM BKN015 02/01 A2949 RMK AO2 SLP992 T00170011 53009 FZRANO $
     PARS 171956Z AUTO 34004KT 10SM OVC044 01/M01 A2948 RMK AO2 SLP988 T00111006 FZRANO $
  PARS 171856Z AUTO VRB05KT 10SM OVC030 00/M01 A2947 RMK AO2 SLP985 T00001011 FZRANO $
  PARS 171756Z AUTO VRB05KT 10SM OVC032 M01/M01 A2947 RMK AO2 SLP983 T10061011 10000 21011
          56006 FZRANO $

  MARSHALL HUNTER/PADM (23-MI WEST OF RUSSIAN MISSION)
  PADM 180056Z AUTO 34005KT 10SM BKN042 02/M02 A2949 RMK AO2 SLP996 T00221022 FZRANO
  PADM 172356Z AUTO 36007KT 10SM OVC046 03/M02 A2949 RMK AO2 SLP996 T00281022 10033 21028
          51002
    PADM 172319Z AUTO 35006KT 10SM SCT027 BKN046 03/M02 A2949 RMK AO2
  PADM 172256Z AUTO 04007KT 10SM BKN027 03/M03 A2949 RMK AO2 SLP995 T00281028
    PADM 172253Z AUTO 04007KT 10SM BKN027 03/M02 A2949 RMK AO2
   PADM 172108Z AUTO 02007KT 10SM BKN031 02/M02 A2948 RMK AO2 FZRANO
   PADM 172056Z AUTO 02007KT 10SM BKN029 BKN034 02/M02 A2948 RMK AO2 SLP991 T00171017 52005
  FZRANO
   PADM 171956Z AUTO 03007KT 10SM BKN025 OVC033 M01/M02 A2947 RMK AO2 SLP990 T10061017 FZRANO
  PADM 171856Z AUTO 11004KT 10SM FEW009 SCT012 OVC027 M01/M02 A2947 RMK AO2 SLP988 T10111022 FZRANO
  PADM 171816Z AUTO 08006KT 10SM SCT025 M03/M03 A2947 RMK AO2 FZRANO
  PADM 171756Z AUTO 06007KT 10SM BKN027 M03/M04 A2946 RMK AO2 SLP986 T10281039 11017 21044 53000
        FZRANO

  KALSKAG/PADM (36-MI EAST-SOUTHEAST OF RUSSIAN MISSION)
  PALG 180056Z AUTO 35005KT BKN038 02/M03 A2947 RMK AO2 SLP984 T00221028 PWINO FZRANO $
  PALG 172356Z AUTO VRB04KT OVC038 02/M03 A2947 RMK AO2 SLP295 10020 20010 57003 PWINO FZRANO TSNO
  RVRNO
   PALG 172256Z AUTO VRB05KT OVC036 02/M04 A2948 RMK AO2 SLP295 PWINO FZRANO TSNO RVRNO
  PALG 172156Z AUTO 08004KT OVC034 01/M04 A2948 RMK AO2 SLP988 T00111039 PWINO FZRANO $
  PALG 172056Z AUTO VRB04KT OVC034 01/M04 A2948 RMK AO2 SLP295 52010 PWINO FZRANO TSNO RVRNO
  PALG 171956Z AUTO 03005KT OVC034 01/M03 A2946 RMK AO2 SLP295 PWINO FZRANO TSNO RVRNO
  PALG 171856Z AUTO VRB04KT OVC034 01/M02 A2945 RMK AO2 SLP979 T00061022 PWINO FZRANO $
  PALG 171756Z AUTO 05004KT OVC034 01/M02 A2945 RMK AO2 SLP295 10010 21010 57007 PWINO FZRANO TSNO
  RVRNO

  BETHEL/PABE (70-MI SOUTH OF RUSSIAN MISSION)
  PABE 180053Z 01012KT 10SM OVC030 02/M02 A2949 RMK AO2 SLP987 T00221022
  PABE 172353Z 02012KT 10SM BKN025 02/M03 A2948 RMK AO2 SLP984 T00221028 10028 21033 51005
  PABE 172253Z COR 36011KT 10SM OVC0223 02/M01 A2948 RMK SLP984 T00171011 VIA AUTODIAL
  PABE 172153Z 02014KT 10SM CLR 02/M02 A2947 RMK AO2 SLP982 T00221017
  PABE 172053Z 02013KT 10SM CLR 01/M01 A2946 RMK AO2 SLP979 T00111006 53014
  PABE 171953Z 03010KT 10SM CLR 00/M02 A2945 RMK AO2 SLP974 T00001017
  PABE 171853Z 03008KT 10SM CLR M02/M03 A2943 RMK AO2 SLP970 T10171028
  PABE 171753Z 02007KT 10SM CLR M03/M04 A2942 RMK AO2 SLP966 I1000 I6000 T10331044 11033 21039
  55002


ECHO  TERMINAL AERODROME FORECASTS:  10/17/17 1000AM LOCAL THROUGH 10/17/17 500PM LOCAL

  TAF COR PABE 172325Z 1800/1824 01008KT P6SM SCT250
          TEMPO 1800/1804 OVC022
          FM180900 29008KT 6SM BR SCT250
          FM181800 27009KT 4SM BR OVC250
  FM182100 30011KT P6SM OVC025

  TAF PABE 172324Z 1800/1824 01008KT P6SM SCT250
      FM180900 29008KT 6SM BR SCT250
      FM181800 27009KT 4SM BR OVC250
      FM182100 30011KT P6SM OVC025

  TAF PABE 171720Z 1718/1818 01008KT P6SM SCT250 FM180900 29008KT 5SM BR SCT002

FOXTROT   UPPER AIR/SOUNDINGS: PABE/BETHEL

  PABE BALLOON SOUNDING 10/17/17 400 PM LOCAL (10/18/17 0000 UTC)
  FL001 (67M)   020/11KT
  FL005 (188M)  020/15KT
  FL010 (341M)  030/19KT
  FL015 (493M)  030/19KT
  FL020 (646M)  035/19KT
  FL030 (951M)  030/23KT
  FL040 (1255M) 020/25KT
  FL050 (1560M) 010/21KT

  PABE BALLOON SOUNDING 10/17/17 400 AM LOCAL (10/17/17 1200 UTC)
  FL001 (67M)   055/06KT
  FL005 (188M)  075/12KT
  FL010 (341M)  080/17KT
  FL015 (493M)  080/14KT
  FL020 (646M)  085/11KT
  FL030 (951M)  095/05KT
  FL040 (1255M) 090/10KT
  FL050 (1560M) 100/10KT


GOLF      AREA FORECASTS: 10/17/17 400 AM THROUGH 10/17/17 500 PM

  ISSUED: 10/17/17 406AM LOCAL (10/17/17 1206 UTC)
  FAAK58 PAWU 171206
  YKN-KUSKOKWIM DELTA AG...VALID UNTIL 180000
  ...CLOUDS/WX...
  FEW025 BKN150 CI ABV. TIL 19Z ISOL CIGS BLW 010/VIS BLW 3SM BR.
  ALG CST ISOL BKN025.
  OTLK VALID 180000-180600...VFR.
  ...TURB...
  NIL SIG.
  ...ICE AND FZLVL...
  NIL SIG. FZLVL 010.

  ISSUED: 10/17/17 1212PM LOCAL (10/17/17 2012 UTC)
  FAAK58 PAWU 172012
  YKN-KUSKOKWIM DELTA AG...VALID UNTIL 180800
  ...CLOUDS/WX...
  SCT025. ISOL BKN025 TOP 060.
  ALG CST/OFSHR OCNL BKN025 TOP 100. ISOL VIS 3-5SM -SHSN.
  OFSHR SFC WND NW G25KT.
  OTLK VALID 180800-181400...VFR.
  ...TURB...
  NIL SIG.
  ...ICE AND FZLVL...
  NIL SIG. FZLVL 010.

  AIRMETS/SIGMETS: NONE
  CWAS: UNKNOWN

HOTEL     N/A

JOSHUA MALOY, METEOROLOGIST, AAWU




USA.gov is the U.S. government's official web portal to all federal, state and local government web resources and services.